Time;durP1;ratioP1;P1;durP2;ratioP2;P2;SDS_P1;SDS_P2;PMS_P1;PMS_P2;Temp;Humidity;BMP_temperature;BMP_pressure;BME280_temperature;BME280_humidity;BME280_pressure;Samples;Min_cycle;Max_cycle;Signal;HPM_P1;HPM_P2
2021/09/07 00:00:01;;;;;;;;;;;;;;;;;;;;;
2021/09/07 00:03:54;;;;;;;5.13;3.15;;;;;;;16.63;68.77;93473.56;4845636;29;20065;-92
2021/09/07 00:10:33;;;;;;;;;;;;;;;;;;;;;
2021/09/07 00:13:43;;;;;;;5.70;2.83;;;;;;;16.51;68.72;93445.03;4842967;29;20062;-93
2021/09/07 00:16:54;;;;;;;4.85;3.17;;;;;;;16.67;68.87;93458.66;4786917;30;20036;-94
2021/09/07 00:20:10;;;;;;;4.97;2.92;;;;;;;16.48;69.23;93426.31;4744867;29;20138;-92
2021/09/07 00:26:37;;;;;;;4.28;2.33;;;;;;;16.83;69.60;93473.13;4807700;29;19993;-93
2021/09/07 00:33:11;;;;;;;4.72;2.53;;;;;;;16.57;69.24;93427.16;4836620;29;20058;-92
2021/09/07 00:36:28;;;;;;;;;;;;;;;;;;;;;
2021/09/07 00:39:53;;;;;;;;;;;;;;;;;;;;;
2021/09/07 00:42:59;;;;;;;6.07;3.08;;;;;;;16.50;69.60;93414.38;4840129;29;20074;-92
2021/09/07 00:46:28;;;;;;;4.13;2.33;;;;;;;16.64;69.60;93433.63;4829271;29;20419;-92
2021/09/07 00:49:45;;;;;;;;;;;;;;;;;;;;;
2021/09/07 00:52:47;;;;;;;5.47;3.17;;;;;;;16.57;69.34;93422.69;4843868;29;20407;-93
2021/09/07 00:55:47;;;;;;;;;;;;;;;;;;;;;
2021/09/07 00:59:31;;;;;;;;;;;;;;;;;;;;;
2021/09/07 01:02:44;;;;;;;5.07;3.20;;;;;;;16.45;71.52;93414.50;4844308;29;20078;-92
2021/09/07 01:12:26;;;;;;;6.35;3.83;;;;;;;16.19;73.59;93401.09;4836235;29;20053;-94
2021/09/07 01:15:50;;;;;;;6.50;3.92;;;;;;;16.24;78.04;93414.19;4796877;29;20136;-92
2021/09/07 01:18:58;;;;;;;;;;;;;;;;;;;;;
2021/09/07 01:21:54;;;;;;;5.43;3.30;;;;;;;16.19;78.69;93409.03;4844809;29;20046;-93
2021/09/07 01:25:36;;;;;;;6.38;3.90;;;;;;;16.27;79.08;93436.59;4847507;29;20061;-92
2021/09/07 01:32:30;;;;;;;;;;;;;;;;;;;;;
2021/09/07 01:35:29;;;;;;;9.52;4.80;;;;;;;16.19;76.07;93407.16;4845866;29;20110;-92
2021/09/07 01:42:10;;;;;;;;;;;;;;;;;;;;;
2021/09/07 01:45:19;;;;;;;;;;;;;;;;;;;;;
2021/09/07 01:55:42;;;;;;;7.90;4.88;;;;;;;16.00;77.96;93386.16;4833712;29;20046;-92
2021/09/07 02:09:34;;;;;;;;;;;;;;;;;;;;;
2021/09/07 02:12:11;;;;;;;10.27;5.20;;;;;;;15.88;79.99;93385.91;4770012;30;20051;-94
2021/09/07 02:15:29;;;;;;;;;;;;;;;;;;;;;
2021/09/07 02:28:35;;;;;;;9.23;4.27;;;;;;;15.92;79.52;93402.72;4819607;29;20401;-93
2021/09/07 02:31:31;;;;;;;9.82;4.03;;;;;;;15.79;79.01;93388.47;4827544;29;20048;-93
2021/09/07 02:34:33;;;;;;;7.72;4.43;;;;;;;15.52;78.50;93347.03;4827978;29;20038;-92
2021/09/07 02:37:47;;;;;;;6.88;4.22;;;;;;;15.49;78.39;93352.91;4811405;29;20111;-93
2021/09/07 02:41:10;;;;;;;;;;;;;;;;;;;;;
2021/09/07 02:47:40;;;;;;;7.10;3.90;;;;;;;15.33;78.03;93341.88;4825538;29;20041;-94
2021/09/07 02:50:37;;;;;;;6.45;4.07;;;;;;;15.27;78.03;93340.41;4838768;29;20504;-95
2021/09/07 02:54:00;;;;;;;7.78;4.25;;;;;;;15.56;78.42;93392.09;4815708;29;20053;-93
2021/09/07 02:57:02;;;;;;;9.77;5.68;;;;;;;15.29;78.04;93348.00;4827370;29;20500;-92
2021/09/07 03:00:23;;;;;;;7.80;4.60;;;;;;;15.28;78.69;93362.28;4828780;29;20076;-93
2021/09/07 03:06:55;;;;;;;;;;;;;;;;;;;;;
2021/09/07 03:10:20;;;;;;;6.93;3.53;;;;;;;15.46;77.88;93394.91;4860156;29;20050;-92
2021/09/07 03:13:50;;;;;;;;;;;;;;;;;;;;;
2021/09/07 03:20:05;;;;;;;6.22;3.85;;;;;;;15.37;78.45;93376.34;4856758;29;20875;-92
2021/09/07 03:26:09;;;;;;;8.40;4.75;;;;;;;15.42;78.54;93394.72;4836884;29;20140;-92
2021/09/07 03:29:28;;;;;;;6.45;4.07;;;;;;;15.14;78.68;93373.63;4836030;29;20164;-91
2021/09/07 03:33:06;;;;;;;;;;;;;;;;;;;;;
2021/09/07 03:36:13;;;;;;;7.28;4.47;;;;;;;15.23;78.57;93392.19;4859630;29;20050;-91
2021/09/07 03:42:59;;;;;;;6.38;3.88;;;;;;;14.91;77.55;93338.44;4859911;29;20036;-92
2021/09/07 03:45:56;;;;;;;8.38;4.18;;;;;;;15.04;77.56;93362.47;4829269;29;20072;-93
2021/09/07 03:48:50;;;;;;;7.22;3.72;;;;;;;14.81;77.89;93337.84;4828154;29;20118;-92
2021/09/07 03:51:55;;;;;;;8.60;3.95;;;;;;;14.85;78.04;93342.25;4800163;29;20066;-91
2021/09/07 03:55:05;;;;;;;7.07;4.03;;;;;;;14.77;77.88;93341.06;4814058;29;20049;-92
2021/09/07 04:01:51;;;;;;;;;;;;;;;;;;;;;
2021/09/07 04:04:53;;;;;;;;;;;;;;;;;;;;;
2021/09/07 04:08:06;;;;;;;5.32;3.58;;;;;;;14.58;77.57;93324.53;4839854;29;20399;-92
2021/09/07 04:11:39;;;;;;;5.00;3.17;;;;;;;15.00;77.97;93388.66;4833488;29;20058;-91
2021/09/07 04:14:40;;;;;;;5.30;3.35;;;;;;;14.65;77.85;93335.47;4850665;29;20053;-93
2021/09/07 04:17:40;;;;;;;5.07;3.63;;;;;;;14.77;78.54;93354.25;4831645;29;20057;-93
2021/09/07 04:20:57;;;;;;;9.43;5.35;;;;;;;14.74;78.52;93349.53;4838571;29;20064;-93
2021/09/07 04:24:11;;;;;;;;;;;;;;;;;;;;;
2021/09/07 04:27:40;;;;;;;7.47;4.40;;;;;;;14.73;78.71;93369.06;4839340;29;20081;-92
2021/09/07 04:37:56;;;;;;;14.68;3.78;;;;;;;14.44;79.23;93336.88;4838967;29;20050;-92
2021/09/07 04:41:05;;;;;;;7.57;4.07;;;;;;;14.33;79.61;93329.13;4847375;29;20053;-92
2021/09/07 04:44:42;;;;;;;;;;;;;;;;;;;;;
2021/09/07 04:51:08;;;;;;;8.52;3.97;;;;;;;14.34;79.56;93341.25;4824841;29;20137;-95
2021/09/07 04:54:51;;;;;;;;;;;;;;;;;;;;;
2021/09/07 05:04:14;;;;;;;6.88;3.85;;;;;;;14.81;79.69;93385.28;4845308;29;20117;-77
2021/09/07 05:06:39;;;;;;;5.60;3.65;;;;;;;14.82;79.83;93397.41;4845155;29;20038;-77
2021/09/07 05:09:05;;;;;;;7.30;3.65;;;;;;;14.85;79.55;93396.81;4857584;29;20053;-77
2021/09/07 05:11:30;;;;;;;5.28;3.20;;;;;;;14.87;79.49;93384.13;4856570;29;20105;-78
2021/09/07 05:13:56;;;;;;;6.03;3.63;;;;;;;14.91;79.34;93396.44;4847661;29;20045;-77
2021/09/07 05:16:22;;;;;;;6.05;3.72;;;;;;;14.94;79.39;93395.84;4852611;29;20042;-77
2021/09/07 05:18:49;;;;;;;6.60;4.03;;;;;;;14.97;78.87;93389.22;4857048;29;20484;-77
2021/09/07 05:21:15;;;;;;;8.00;3.65;;;;;;;15.04;79.26;93397.53;4853019;29;20052;-77
2021/09/07 05:23:40;;;;;;;5.57;3.60;;;;;;;15.09;78.93;93397.44;4829192;29;20542;-78
2021/09/07 05:26:06;;;;;;;5.82;3.33;;;;;;;15.16;78.24;93397.84;4849520;29;20141;-79
2021/09/07 05:28:33;;;;;;;5.00;3.40;;;;;;;15.23;78.54;93399.31;4842695;29;20061;-79
2021/09/07 05:30:58;;;;;;;6.40;4.18;;;;;;;15.29;78.21;93395.50;4846336;29;20045;-78
2021/09/07 05:33:25;;;;;;;7.05;3.80;;;;;;;15.39;78.06;93397.94;4853411;29;20049;-78
2021/09/07 05:35:51;;;;;;;7.72;3.25;;;;;;;15.45;77.31;93391.50;4831332;29;20679;-78
2021/09/07 05:38:17;;;;;;;6.72;4.07;;;;;;;15.52;77.04;93391.09;4841659;29;20042;-77
2021/09/07 05:40:43;;;;;;;7.60;4.18;;;;;;;15.58;77.21;93392.56;4842419;29;20042;-78
2021/09/07 05:43:08;;;;;;;7.45;3.97;;;;;;;15.65;77.36;93392.16;4840308;29;20399;-77
2021/09/07 05:45:34;;;;;;;7.35;4.32;;;;;;;15.69;77.48;93391.28;4826557;29;20600;-77
2021/09/07 05:48:00;;;;;;;7.22;4.03;;;;;;;15.73;77.23;93389.63;4850389;29;20049;-77
2021/09/07 05:50:25;;;;;;;7.10;4.10;;;;;;;15.82;76.78;93389.72;4814542;29;20046;-77
2021/09/07 05:52:51;;;;;;;10.45;4.13;;;;;;;15.89;76.70;93394.59;4824939;29;20080;-77
2021/09/07 05:55:17;;;;;;;6.95;3.65;;;;;;;15.94;76.79;93394.50;4832891;29;20131;-76
2021/09/07 05:57:43;;;;;;;7.47;4.10;;;;;;;16.02;76.33;93386.66;4847236;29;20042;-78
2021/09/07 06:00:12;;;;;;;6.78;3.60;;;;;;;16.13;75.84;93397.00;4850486;29;20050;-77
2021/09/07 06:02:39;;;;;;;6.35;3.90;;;;;;;16.24;75.70;93393.81;4822426;29;20062;-76
2021/09/07 06:05:06;;;;;;;6.43;3.60;;;;;;;16.92;73.39;93401.00;4828303;29;20070;-78
2021/09/07 06:07:31;;;;;;;9.75;4.63;;;;;;;17.74;70.41;93396.19;4842492;29;20547;-79
2021/09/07 06:09:57;;;;;;;6.15;3.83;;;;;;;19.35;65.33;93395.97;4840564;29;20050;-78
2021/09/07 06:12:24;;;;;;;9.02;4.93;;;;;;;20.49;60.68;93395.31;4808089;29;20046;-78
2021/09/07 06:14:50;;;;;;;8.38;4.43;;;;;;;21.43;57.94;93397.41;4807929;29;20051;-78
2021/09/07 06:17:16;;;;;;;6.72;4.05;;;;;;;21.95;56.41;93395.97;4842824;29;20289;-78
2021/09/07 06:19:42;;;;;;;9.02;5.18;;;;;;;22.57;54.32;93401.97;4847147;29;20302;-78
2021/09/07 06:22:07;;;;;;;7.90;4.55;;;;;;;23.60;51.75;93395.91;4833340;29;20060;-79
2021/09/07 06:24:33;;;;;;;9.68;4.30;;;;;;;24.46;49.75;93402.41;4846247;29;20203;-78
2021/09/07 06:26:59;;;;;;;7.22;4.43;;;;;;;24.65;48.75;93388.28;4842918;29;20058;-78
2021/09/07 06:29:24;;;;;;;7.70;3.95;;;;;;;25.38;47.69;93391.19;4847688;29;20068;-78
2021/09/07 06:31:50;;;;;;;9.73;5.45;;;;;;;25.76;45.85;93395.63;4852584;29;20073;-78
2021/09/07 06:34:15;;;;;;;7.57;4.72;;;;;;;26.10;45.36;93395.78;4838679;29;20384;-77
2021/09/07 06:36:41;;;;;;;8.70;4.60;;;;;;;26.61;44.48;93400.69;4812358;29;20103;-77
2021/09/07 06:39:07;;;;;;;8.60;4.65;;;;;;;25.53;46.78;93399.09;4845508;29;20176;-77
2021/09/07 06:41:32;;;;;;;7.95;4.68;;;;;;;25.44;46.47;93395.84;4860050;29;20408;-77
2021/09/07 06:43:58;;;;;;;7.32;4.53;;;;;;;26.75;43.95;93400.88;4858730;29;20034;-78
2021/09/07 06:46:24;;;;;;;9.68;4.63;;;;;;;27.43;42.00;93406.22;4857519;29;20057;-77
2021/09/07 06:48:49;;;;;;;8.20;4.97;;;;;;;28.50;40.14;93410.88;4854345;29;20044;-78
2021/09/07 06:51:15;;;;;;;7.63;4.50;;;;;;;28.95;39.19;93406.81;4846696;29;20125;-77
2021/09/07 06:53:40;;;;;;;7.82;4.30;;;;;;;28.58;38.54;93399.00;4842411;29;20127;-78
2021/09/07 06:56:06;;;;;;;8.73;4.53;;;;;;;26.61;42.99;93398.00;4841623;29;20053;-78
2021/09/07 06:58:31;;;;;;;6.78;4.25;;;;;;;25.47;46.22;93400.53;4844271;29;20128;-78
2021/09/07 07:00:57;;;;;;;6.43;3.78;;;;;;;24.44;48.58;93407.34;4834257;29;20053;-78
2021/09/07 07:03:23;;;;;;;6.90;4.32;;;;;;;23.38;51.30;93404.50;4865882;29;20127;-77
2021/09/07 07:05:48;;;;;;;7.93;4.38;;;;;;;22.65;54.87;93409.84;4866346;29;20045;-78
2021/09/07 07:08:14;;;;;;;7.88;4.05;;;;;;;22.01;58.93;93410.63;4858993;29;20045;-78
2021/09/07 07:10:40;;;;;;;6.53;3.65;;;;;;;21.32;61.41;93412.22;4876518;29;20388;-77
2021/09/07 07:13:05;;;;;;;7.35;4.43;;;;;;;20.99;62.12;93410.41;4876535;29;20064;-77
2021/09/07 07:15:31;;;;;;;5.82;3.70;;;;;;;20.58;64.58;93418.13;4860316;29;20140;-78
2021/09/07 07:17:57;;;;;;;6.47;4.13;;;;;;;19.94;67.73;93415.72;4877180;29;20061;-77
2021/09/07 07:20:22;;;;;;;7.25;4.07;;;;;;;20.16;65.99;93415.41;4864254;29;20042;-77
2021/09/07 07:22:48;;;;;;;4.85;3.28;;;;;;;19.42;69.92;93423.91;4844559;29;20503;-78
2021/09/07 07:25:14;;;;;;;11.23;3.97;;;;;;;19.66;68.79;93421.47;4845292;29;20124;-77
2021/09/07 07:27:41;;;;;;;6.78;4.05;;;;;;;19.90;68.66;93414.78;4863211;29;20183;-77
2021/09/07 07:30:09;;;;;;;7.22;4.18;;;;;;;19.46;69.92;93417.63;4854419;29;20049;-76
2021/09/07 07:32:34;;;;;;;6.07;3.95;;;;;;;19.57;67.62;93415.41;4872139;29;20077;-76
2021/09/07 07:35:01;;;;;;;6.63;3.60;;;;;;;19.70;69.58;93422.41;4865096;29;20068;-77
2021/09/07 07:37:27;;;;;;;6.50;3.95;;;;;;;19.58;67.98;93416.19;4878154;29;20260;-77
2021/09/07 07:39:52;;;;;;;7.00;3.78;;;;;;;19.74;69.58;93418.00;4877331;29;20033;-77
2021/09/07 07:42:18;;;;;;;5.78;3.83;;;;;;;20.04;65.62;93418.00;4880374;29;20060;-79
2021/09/07 07:44:44;;;;;;;7.32;4.13;;;;;;;20.05;65.66;93421.44;4869756;29;20030;-78
2021/09/07 07:47:09;;;;;;;7.18;4.20;;;;;;;20.25;65.30;93418.03;4862329;29;20045;-78
2021/09/07 07:49:35;;;;;;;7.47;4.10;;;;;;;20.41;65.15;93418.22;4861141;29;20492;-79
2021/09/07 07:52:01;;;;;;;6.80;3.80;;;;;;;20.56;63.96;93425.63;4861797;29;20137;-78
2021/09/07 07:54:26;;;;;;;6.10;3.95;;;;;;;20.56;65.19;93417.66;4862894;29;20481;-78
2021/09/07 07:56:52;;;;;;;8.23;4.50;;;;;;;20.64;63.81;93420.56;4829855;29;20424;-78
2021/09/07 07:59:18;;;;;;;7.25;3.90;;;;;;;20.98;65.11;93425.59;4861612;29;20492;-78
2021/09/07 08:01:44;;;;;;;5.20;2.97;;;;;;;20.58;67.82;93422.66;4860461;29;20073;-77
2021/09/07 08:04:10;;;;;;;7.20;4.25;;;;;;;20.48;63.49;93431.75;4861686;29;20136;-78
2021/09/07 08:06:37;;;;;;;5.68;3.78;;;;;;;20.27;67.96;93431.00;4846741;29;20064;-78
2021/09/07 08:09:03;;;;;;;5.97;3.67;;;;;;;20.55;67.00;93432.00;4862136;29;20073;-77
2021/09/07 08:11:28;;;;;;;7.55;3.95;;;;;;;20.78;65.48;93421.06;4861448;29;20136;-77
2021/09/07 08:13:54;;;;;;;6.28;4.20;;;;;;;20.92;64.85;93432.22;4861698;29;20441;-78
2021/09/07 08:16:21;;;;;;;7.78;3.67;;;;;;;20.85;66.51;93431.19;4861246;29;20277;-79
2021/09/07 08:18:47;;;;;;;5.68;3.58;;;;;;;20.81;65.75;93423.09;4845328;29;20065;-77
2021/09/07 08:21:13;;;;;;;3.95;2.80;;;;;;;20.49;68.57;93428.03;4861336;29;20045;-79
2021/09/07 08:23:39;;;;;;;19.45;4.82;;;;;;;20.66;67.77;93439.66;4851527;29;20065;-77
2021/09/07 08:26:04;;;;;;;8.05;4.90;;;;;;;20.63;64.59;93435.75;4850909;29;20460;-78
2021/09/07 08:28:30;;;;;;;7.15;3.83;;;;;;;20.33;67.13;93440.31;4860800;29;20057;-78
2021/09/07 08:30:56;;;;;;;8.00;4.22;;;;;;;19.53;71.70;93443.69;4861275;29;20442;-78
2021/09/07 08:33:22;;;;;;;7.80;4.00;;;;;;;20.16;68.18;93438.56;4859662;29;20102;-78
2021/09/07 08:35:48;;;;;;;7.50;4.30;;;;;;;20.36;67.13;93442.34;4861038;29;20105;-77
2021/09/07 08:38:13;;;;;;;9.20;4.88;;;;;;;20.85;64.25;93437.31;4844388;29;20106;-77
2021/09/07 08:40:40;;;;;;;8.52;4.35;;;;;;;20.70;63.51;93445.88;4861901;29;20484;-79
2021/09/07 08:43:07;;;;;;;6.97;4.03;;;;;;;20.70;63.90;93446.66;4863176;29;20059;-79
2021/09/07 08:45:33;;;;;;;7.70;3.92;;;;;;;21.34;64.20;93444.63;4862307;29;20397;-78
2021/09/07 08:48:02;;;;;;;8.05;3.75;;;;;;;21.46;57.73;93446.56;4860747;29;20109;-78
2021/09/07 08:50:28;;;;;;;7.82;4.70;;;;;;;21.73;56.19;93447.81;4860605;29;20496;-77
2021/09/07 08:52:59;;;;;;;7.45;4.15;;;;;;;22.01;55.41;93447.94;4843198;29;20062;-78
2021/09/07 08:55:29;;;;;;;9.85;3.67;;;;;;;21.56;59.32;93452.25;4843550;29;20056;-77
2021/09/07 08:57:55;;;;;;;6.88;4.25;;;;;;;21.97;58.81;93442.50;4844379;29;20053;-77
2021/09/07 09:00:26;;;;;;;6.40;3.55;;;;;;;21.79;60.42;93444.59;4843230;29;20045;-78
2021/09/07 09:02:52;;;;;;;9.60;4.35;;;;;;;21.53;57.87;93450.25;4846315;29;20076;-78
2021/09/07 09:05:29;;;;;;;9.63;4.78;;;;;;;21.45;59.23;93442.34;4861223;29;20045;-77
2021/09/07 09:07:56;;;;;;;7.25;3.97;;;;;;;20.93;63.39;93441.75;4861949;29;20572;-78
2021/09/07 09:10:23;;;;;;;8.05;4.78;;;;;;;21.08;60.14;93448.34;4861737;29;20030;-78
2021/09/07 09:12:49;;;;;;;6.78;4.20;;;;;;;21.35;59.83;93446.97;4847753;29;20054;-77
2021/09/07 09:15:20;;;;;;;7.68;5.10;;;;;;;21.51;61.63;93451.69;4862497;29;20044;-77
2021/09/07 09:17:46;;;;;;;7.93;4.22;;;;;;;21.34;62.16;93449.97;4862147;29;20053;-78
2021/09/07 09:20:18;;;;;;;7.60;4.18;;;;;;;21.57;62.25;93439.69;4861665;29;20599;-77
2021/09/07 09:22:50;;;;;;;6.57;3.90;;;;;;;21.61;61.89;93438.69;4861770;29;20049;-78
2021/09/07 09:25:22;;;;;;;9.30;4.28;;;;;;;21.44;62.55;93436.25;4862506;29;20093;-79
2021/09/07 09:27:49;;;;;;;7.97;4.88;;;;;;;21.22;59.33;93437.41;4858274;29;20500;-77
2021/09/07 09:30:16;;;;;;;5.82;3.45;;;;;;;21.39;59.78;93431.91;4861344;29;20073;-78
2021/09/07 09:32:52;;;;;;;8.43;4.80;;;;;;;21.53;62.94;93433.50;4870490;29;20049;-78
2021/09/07 09:35:19;;;;;;;6.32;3.63;;;;;;;21.91;60.48;93432.38;4879921;29;20511;-78
2021/09/07 09:37:58;;;;;;;7.47;4.20;;;;;;;21.39;62.10;93428.44;4868630;29;20038;-77
2021/09/07 09:40:24;;;;;;;8.95;4.60;;;;;;;22.00;59.17;93430.41;4878423;29;20048;-77
2021/09/07 09:42:50;;;;;;;6.57;4.55;;;;;;;22.19;59.28;93427.94;4879671;29;20049;-78
2021/09/07 09:45:17;;;;;;;8.10;4.80;;;;;;;22.60;58.33;93425.31;4878670;29;20045;-77
2021/09/07 09:47:51;;;;;;;7.70;4.60;;;;;;;21.87;59.27;93431.53;4879968;29;20045;-77
2021/09/07 09:50:19;;;;;;;7.07;4.43;;;;;;;22.07;61.76;93430.63;4879339;29;20056;-78
2021/09/07 09:52:46;;;;;;;6.75;4.35;;;;;;;23.18;51.07;93412.41;4848048;29;20037;-77
2021/09/07 09:55:13;;;;;;;8.15;4.75;;;;;;;22.97;56.47;93412.59;4855622;29;20423;-78
2021/09/07 09:57:40;;;;;;;8.70;4.57;;;;;;;22.24;56.35;93419.72;4861386;29;20045;-79
2021/09/07 10:00:11;;;;;;;8.32;4.55;;;;;;;22.30;56.62;93419.50;4860154;29;20118;-79
2021/09/07 10:02:41;;;;;;;6.38;4.03;;;;;;;22.64;56.20;93415.50;4857614;29;20064;-79
2021/09/07 10:05:10;;;;;;;8.70;4.95;;;;;;;22.01;57.31;93416.72;4848277;29;20527;-79
2021/09/07 10:07:35;;;;;;;7.72;3.92;;;;;;;22.37;56.22;93411.72;4877790;29;20472;-79
2021/09/07 10:10:01;;;;;;;9.65;4.93;;;;;;;22.01;55.83;93413.28;4873321;29;20049;-77
2021/09/07 10:12:37;;;;;;;6.22;4.15;;;;;;;22.75;56.36;93410.47;4871461;29;20443;-79
2021/09/07 10:15:24;;;;;;;8.32;4.68;;;;;;;22.73;50.96;93410.03;4860878;29;20497;-80
2021/09/07 10:17:53;;;;;;;8.20;4.43;;;;;;;22.13;54.31;93407.94;4860235;29;20497;-80
2021/09/07 10:20:48;;;;;;;6.80;3.70;;;;;;;22.02;54.23;93412.16;4839445;29;20149;-78
2021/09/07 10:23:29;;;;;;;9.30;4.78;;;;;;;22.14;52.72;93398.06;4836993;29;20061;-78
2021/09/07 10:25:55;;;;;;;7.75;3.33;;;;;;;21.89;53.48;93403.41;4842610;29;20206;-77
2021/09/07 10:28:35;;;;;;;8.65;4.32;;;;;;;22.18;49.93;93394.38;4842376;29;20065;-79
2021/09/07 10:31:08;;;;;;;7.93;4.25;;;;;;;22.17;52.88;93395.47;4854058;29;20059;-78
2021/09/07 10:33:56;;;;;;;6.75;4.20;;;;;;;22.13;51.45;93391.94;4860748;29;20053;-78
2021/09/07 10:36:24;;;;;;;6.90;4.38;;;;;;;22.11;52.95;93394.19;4860180;29;20054;-78
2021/09/07 10:38:52;;;;;;;6.50;3.85;;;;;;;22.37;52.94;93390.38;4860615;29;20045;-78
2021/09/07 10:41:33;;;;;;;6.60;3.92;;;;;;;22.45;52.08;93381.47;4859402;29;20548;-78
2021/09/07 10:44:24;;;;;;;7.88;4.63;;;;;;;21.91;52.77;93376.41;4859413;29;20526;-77
2021/09/07 10:46:56;;;;;;;7.05;4.18;;;;;;;22.06;51.22;93375.72;4859627;29;20113;-78
2021/09/07 10:49:36;;;;;;;7.40;4.57;;;;;;;21.90;51.60;93374.88;4858565;29;20072;-78
2021/09/07 10:52:15;;;;;;;7.72;3.38;;;;;;;22.00;51.86;93377.09;4858743;29;20061;-78
2021/09/07 10:54:46;;;;;;;5.20;3.00;;;;;;;21.82;52.68;93366.66;4858992;29;20073;-76
2021/09/07 10:57:34;;;;;;;6.73;4.10;;;;;;;21.85;52.09;93367.13;4861983;29;20097;-78
2021/09/07 11:00:03;;;;;;;5.20;3.35;;;;;;;21.70;52.07;93366.66;4860764;29;20302;-78
2021/09/07 11:02:48;;;;;;;5.32;3.10;;;;;;;21.25;53.56;93364.84;4860851;29;20656;-78
2021/09/07 11:05:23;;;;;;;6.30;3.83;;;;;;;21.91;51.78;93363.09;4862855;29;20495;-77
2021/09/07 11:08:06;;;;;;;7.47;3.88;;;;;;;22.39;51.33;93356.13;4862727;29;20563;-77
2021/09/07 11:10:37;;;;;;;6.35;3.55;;;;;;;22.55;49.22;93353.53;4860650;29;20056;-77
2021/09/07 11:13:04;;;;;;;8.73;3.60;;;;;;;22.85;50.62;93359.25;4855937;29;20050;-78
2021/09/07 11:15:33;;;;;;;5.57;3.00;;;;;;;22.51;48.86;93341.97;4829440;29;20052;-78
2021/09/07 11:18:02;;;;;;;11.90;3.80;;;;;;;22.55;46.53;93346.28;4861559;29;20128;-77
2021/09/07 11:20:39;;;;;;;6.07;3.17;;;;;;;22.23;49.15;93351.50;4863430;29;20051;-79
2021/09/07 11:23:12;;;;;;;6.28;3.83;;;;;;;22.13;49.41;93338.59;4862137;29;20045;-78
2021/09/07 11:25:39;;;;;;;7.00;4.10;;;;;;;21.94;48.93;93339.22;4863522;29;20561;-78
2021/09/07 11:28:06;;;;;;;5.10;3.22;;;;;;;22.36;50.07;93343.47;4863322;29;20052;-78
2021/09/07 11:30:36;;;;;;;5.57;3.03;;;;;;;23.15;47.32;93343.66;4858248;29;20049;-77
2021/09/07 11:33:07;;;;;;;7.07;4.03;;;;;;;23.39;46.53;93334.69;4855326;29;20077;-76
2021/09/07 11:35:39;;;;;;;13.68;2.97;;;;;;;23.33;46.15;93340.63;4861524;29;20050;-78
2021/09/07 11:38:08;;;;;;;6.15;3.47;;;;;;;23.37;47.97;93330.81;4858797;29;20049;-77
2021/09/07 11:40:39;;;;;;;5.82;3.25;;;;;;;24.01;46.08;93339.56;4859785;29;20054;-77
2021/09/07 11:43:05;;;;;;;5.05;3.17;;;;;;;23.82;50.64;93326.91;4846229;29;20053;-77
2021/09/07 11:45:33;;;;;;;7.15;3.50;;;;;;;24.47;45.77;93334.38;4862063;29;20037;-78
2021/09/07 11:48:01;;;;;;;6.00;3.50;;;;;;;24.86;45.32;93323.66;4851432;29;20049;-77
2021/09/07 11:50:31;;;;;;;7.15;3.53;;;;;;;24.50;46.27;93328.34;4864909;29;20041;-78
2021/09/07 11:53:02;;;;;;;4.82;2.83;;;;;;;24.10;47.54;93324.09;4859253;29;20729;-78
2021/09/07 11:55:48;;;;;;;4.75;3.05;;;;;;;23.35;47.62;93325.03;4862496;29;20109;-78
2021/09/07 11:58:35;;;;;;;3.40;1.90;;;;;;;22.60;50.84;93324.69;4863565;29;20045;-77
2021/09/07 12:01:10;;;;;;;6.03;3.50;;;;;;;23.35;48.33;93331.19;4867744;29;20127;-78
2021/09/07 12:03:37;;;;;;;4.80;2.85;;;;;;;23.51;46.51;93322.34;4846336;29;20091;-78
2021/09/07 12:06:05;;;;;;;5.30;3.13;;;;;;;23.15;47.79;93318.88;4843614;29;20033;-77
2021/09/07 12:08:38;;;;;;;4.28;2.80;;;;;;;23.09;47.43;93313.00;4861243;29;20071;-78
2021/09/07 12:11:05;;;;;;;6.47;3.65;;;;;;;22.53;49.70;93316.50;4862325;29;20037;-78
2021/09/07 12:13:32;;;;;;;4.15;2.65;;;;;;;22.77;49.71;93309.50;4860709;29;20045;-77
2021/09/07 12:15:58;;;;;;;5.57;3.28;;;;;;;22.28;50.35;93305.16;4861283;29;20140;-79
2021/09/07 12:18:44;;;;;;;6.55;3.45;;;;;;;22.13;51.19;93303.94;4862119;29;20045;-78
2021/09/07 12:21:22;;;;;;;4.78;2.70;;;;;;;22.68;49.54;93306.22;4852263;29;20461;-79
2021/09/07 12:23:49;;;;;;;6.68;4.03;;;;;;;22.76;50.11;93302.59;4847865;29;20136;-77
2021/09/07 12:26:15;;;;;;;5.00;3.05;;;;;;;22.62;49.31;93295.78;4857259;29;20049;-79
2021/09/07 12:28:41;;;;;;;4.57;2.80;;;;;;;22.85;48.76;93297.88;4844383;29;20114;-78
2021/09/07 12:31:13;;;;;;;5.43;3.20;;;;;;;22.43;47.63;93293.75;4861346;29;20078;-79
2021/09/07 12:33:47;;;;;;;6.20;3.57;;;;;;;22.79;49.22;93288.59;4839160;29;20057;-79
2021/09/07 12:36:13;;;;;;;7.35;3.75;;;;;;;22.90;48.62;93294.16;4842861;29;20470;-79
2021/09/07 12:38:39;;;;;;;7.80;3.40;;;;;;;23.08;47.61;93279.41;4842693;29;20500;-79
2021/09/07 12:41:08;;;;;;;5.35;3.22;;;;;;;22.76;49.58;93281.25;4826727;29;20054;-78
2021/09/07 12:43:41;;;;;;;6.65;3.78;;;;;;;22.38;50.20;93279.88;4857931;29;20478;-79
2021/09/07 12:46:12;;;;;;;8.32;3.15;;;;;;;22.90;48.62;93284.28;4879742;29;20476;-77
2021/09/07 12:48:40;;;;;;;5.00;2.90;;;;;;;22.85;50.71;93281.84;4880451;29;20048;-78
2021/09/07 12:51:09;;;;;;;6.45;3.75;;;;;;;22.57;49.91;93282.69;4870093;29;20481;-78
2021/09/07 12:53:43;;;;;;;5.68;3.10;;;;;;;22.71;50.82;93282.28;4850675;29;20088;-77
2021/09/07 12:56:11;;;;;;;5.40;3.03;;;;;;;22.72;50.79;93273.16;4879175;29;20045;-77
2021/09/07 12:58:42;;;;;;;3.97;2.63;;;;;;;22.97;48.14;93278.34;4833153;29;20120;-80
2021/09/07 13:01:09;;;;;;;6.07;3.45;;;;;;;23.16;50.02;93269.66;4855712;29;20056;-78
2021/09/07 13:03:40;;;;;;;5.63;3.28;;;;;;;23.53;48.73;93262.13;4862453;29;20044;-78
2021/09/07 13:06:08;;;;;;;6.50;3.60;;;;;;;23.44;48.47;93265.00;4862622;29;20049;-79
2021/09/07 13:08:34;;;;;;;11.25;3.83;;;;;;;23.32;47.74;93266.97;4863412;29;20049;-78
2021/09/07 13:11:00;;;;;;;4.97;3.03;;;;;;;23.53;47.63;93256.78;4859975;29;20060;-78
2021/09/07 13:13:25;;;;;;;6.13;3.90;;;;;;;23.77;46.33;93261.13;4845039;29;20041;-78
2021/09/07 13:15:51;;;;;;;6.05;3.47;;;;;;;23.96;46.62;93256.91;4841967;29;20053;-78
2021/09/07 13:18:17;;;;;;;3.40;2.30;;;;;;;23.57;49.13;93246.16;4854455;29;20042;-78
2021/09/07 13:20:43;;;;;;;4.68;2.92;;;;;;;23.11;48.99;93245.91;4827925;29;20046;-77
2021/09/07 13:23:10;;;;;;;5.78;3.17;;;;;;;23.43;47.38;93249.28;4879200;29;20487;-78
2021/09/07 13:25:36;;;;;;;6.70;3.15;;;;;;;23.11;48.38;93245.91;4863364;29;20484;-77
2021/09/07 13:28:02;;;;;;;2.72;1.95;;;;;;;22.59;48.70;93245.78;4851163;29;20045;-77
2021/09/07 13:30:30;;;;;;;2.40;1.52;;;;;;;22.30;50.16;93232.81;4859287;29;20053;-77
2021/09/07 13:32:55;;;;;;;5.65;3.35;;;;;;;23.00;49.16;93245.66;4829887;29;20057;-79
2021/09/07 13:35:21;;;;;;;7.40;3.45;;;;;;;23.21;47.19;93237.34;4838402;29;20058;-80
2021/09/07 13:37:47;;;;;;;5.10;3.15;;;;;;;23.36;48.83;93233.88;4842465;29;20124;-79
2021/09/07 13:40:13;;;;;;;5.50;3.50;;;;;;;23.45;47.18;93231.78;4848067;29;20046;-80
2021/09/07 13:42:38;;;;;;;5.72;3.33;;;;;;;23.74;46.41;93234.31;4860938;29;20124;-80
2021/09/07 13:45:04;;;;;;;7.00;3.38;;;;;;;23.42;48.00;93235.19;4859173;29;20053;-80
2021/09/07 13:47:30;;;;;;;9.73;3.97;;;;;;;22.80;49.72;93231.41;4875035;29;20045;-78
2021/09/07 13:49:56;;;;;;;6.38;3.22;;;;;;;22.88;49.62;93227.81;4852919;29;20058;-79
2021/09/07 13:52:21;;;;;;;8.07;4.15;;;;;;;23.56;47.08;93220.56;4868910;29;20080;-81
2021/09/07 13:54:47;;;;;;;6.20;3.25;;;;;;;23.28;48.07;93214.28;4825726;29;20431;-78
2021/09/07 13:57:13;;;;;;;4.97;2.65;;;;;;;22.92;47.24;93218.00;4848171;29;20062;-79
2021/09/07 13:59:39;;;;;;;5.22;2.97;;;;;;;23.31;47.99;93207.44;4847792;29;20045;-78
2021/09/07 14:02:04;;;;;;;6.35;3.17;;;;;;;23.15;48.41;93207.47;4846761;29;20639;-80
2021/09/07 14:04:30;;;;;;;6.18;3.22;;;;;;;22.98;49.63;93205.13;4860152;29;20044;-79
2021/09/07 14:06:55;;;;;;;8.32;3.30;;;;;;;23.52;47.36;93206.38;4872036;29;20393;-78
2021/09/07 14:09:21;;;;;;;7.50;3.33;;;;;;;23.69;47.43;93211.31;4860111;29;20038;-78
2021/09/07 14:11:47;;;;;;;6.90;3.03;;;;;;;23.26;47.94;93215.75;4828834;29;20052;-80
2021/09/07 14:14:12;;;;;;;3.85;2.42;;;;;;;23.33;48.50;93213.22;4860605;29;20045;-78
2021/09/07 14:16:38;;;;;;;6.93;3.40;;;;;;;23.72;45.60;93213.28;4860965;29;20045;-79
2021/09/07 14:19:03;;;;;;;4.65;2.95;;;;;;;24.04;44.69;93199.78;4858948;29;20041;-79
2021/09/07 14:21:29;;;;;;;6.20;2.80;;;;;;;23.74;44.58;93200.34;4874193;29;20049;-81
2021/09/07 14:23:54;;;;;;;5.13;3.08;;;;;;;24.11;45.78;93194.56;4830290;29;20037;-79